KBEH/BEH METAR and TAF weather

Enter ICAO airport designator
Station Type Date Time Source
KBEH METAR 2022/11/30 17:53 UTC NOAA

KBEH 301753Z AUTO 24023G34KT 10SM OVC021 M02/M07 A2996 RMK AO2 PK WND 26034/1745 SLP150 T10171067 11006 21017 51020


Station Type Date Time Source
KBEH Decoded METAR 2022/11/30 17:53 UTC NOAA

SOUTHWEST MICHIGAN REGIONAL, MI, United States (KBEH) 42-08N 86-25W 191M
Nov 30, 2022 - 12:53 PM EST / 2022.11.30 1753 UTC
Wind: from the WSW (240 degrees) at 26 MPH (23 KT) gusting to 39 MPH (34 KT):0
Visibility: 10 mile(s):0
Sky conditions: overcast
Temperature: 28.9 F (-1.7 C)
Windchill: 14 F (-10 C):1
Dew Point: 19.9 F (-6.7 C)
Relative Humidity: 68%
Pressure (altimeter): 29.96 in. Hg (1014 hPa)
Pressure tendency: 0.06 inches (2.0 hPa) higher than three hours ago
ob: KBEH 301753Z AUTO 24023G34KT 10SM OVC021 M02/M07 A2996 RMK AO2 PK WND 26034/1745 SLP150 T10171067 11006 21017 51020
cycle: 18

Station Type Date Time Source
KBEH TAF UTC NOAA

Error!

Example: see airport list